sensor_id;sensor_type;location;lat;lon;timestamp;pressure;altitude;pressure_sealevel;temperature;humidity
29247;BME280;16272;48.188;9.964;2023-11-21T00:02:20;95254.56;;;7.07;80.52
29247;BME280;16272;48.188;9.964;2023-11-21T00:04:48;95258.13;;;7.26;81.12
29247;BME280;16272;48.188;9.964;2023-11-21T00:07:13;95254.13;;;7.22;80.97
29247;BME280;16272;48.188;9.964;2023-11-21T00:09:40;95262.75;;;7.14;81.04
29247;BME280;16272;48.188;9.964;2023-11-21T00:12:06;95262.06;;;7.12;81.94
29247;BME280;16272;48.188;9.964;2023-11-21T00:14:38;95251.19;;;7.25;81.49
29247;BME280;16272;48.188;9.964;2023-11-21T00:17:06;95252.34;;;7.12;81.65
29247;BME280;16272;48.188;9.964;2023-11-21T00:19:32;95245.78;;;7.16;80.80
29247;BME280;16272;48.188;9.964;2023-11-21T00:21:58;95249.00;;;7.10;81.43
29247;BME280;16272;48.188;9.964;2023-11-21T00:24:24;95251.97;;;6.88;81.89
29247;BME280;16272;48.188;9.964;2023-11-21T00:26:51;95244.00;;;7.07;81.54
29247;BME280;16272;48.188;9.964;2023-11-21T00:29:16;95237.94;;;6.97;81.94
29247;BME280;16272;48.188;9.964;2023-11-21T00:31:44;95244.59;;;7.01;82.33
29247;BME280;16272;48.188;9.964;2023-11-21T00:34:12;95245.09;;;7.14;82.03
29247;BME280;16272;48.188;9.964;2023-11-21T00:36:37;95238.84;;;7.15;81.22
29247;BME280;16272;48.188;9.964;2023-11-21T00:39:03;95231.31;;;7.21;81.61
29247;BME280;16272;48.188;9.964;2023-11-21T00:41:28;95238.56;;;7.18;81.77
29247;BME280;16272;48.188;9.964;2023-11-21T00:43:54;95237.56;;;7.20;82.11
29247;BME280;16272;48.188;9.964;2023-11-21T00:46:20;95242.78;;;7.39;81.25
29247;BME280;16272;48.188;9.964;2023-11-21T00:48:46;95246.69;;;7.35;81.32
29247;BME280;16272;48.188;9.964;2023-11-21T00:51:11;95244.00;;;7.17;81.28
29247;BME280;16272;48.188;9.964;2023-11-21T00:53:36;95235.09;;;7.08;81.46
29247;BME280;16272;48.188;9.964;2023-11-21T00:56:02;95240.56;;;7.07;81.89
29247;BME280;16272;48.188;9.964;2023-11-21T00:58:27;95239.00;;;7.14;81.30
29247;BME280;16272;48.188;9.964;2023-11-21T01:00:53;95230.81;;;7.07;81.87
29247;BME280;16272;48.188;9.964;2023-11-21T01:03:18;95233.97;;;7.21;80.92
29247;BME280;16272;48.188;9.964;2023-11-21T01:05:44;95234.34;;;7.26;81.40
29247;BME280;16272;48.188;9.964;2023-11-21T01:08:09;95230.66;;;7.09;81.87
29247;BME280;16272;48.188;9.964;2023-11-21T01:10:35;95233.19;;;7.01;82.40
29247;BME280;16272;48.188;9.964;2023-11-21T01:13:01;95225.69;;;6.96;82.89
29247;BME280;16272;48.188;9.964;2023-11-21T01:15:26;95227.47;;;7.15;80.78
29247;BME280;16272;48.188;9.964;2023-11-21T01:17:52;95224.97;;;7.13;81.30
29247;BME280;16272;48.188;9.964;2023-11-21T01:20:17;95232.47;;;7.08;81.12
29247;BME280;16272;48.188;9.964;2023-11-21T01:22:43;95234.81;;;7.11;80.57
29247;BME280;16272;48.188;9.964;2023-11-21T01:25:08;95231.91;;;7.05;81.65
29247;BME280;16272;48.188;9.964;2023-11-21T01:27:34;95227.78;;;7.02;80.73
29247;BME280;16272;48.188;9.964;2023-11-21T01:30:01;95222.97;;;6.78;81.45
29247;BME280;16272;48.188;9.964;2023-11-21T01:32:27;95228.38;;;6.76;82.31
29247;BME280;16272;48.188;9.964;2023-11-21T01:34:54;95229.34;;;6.85;82.91
29247;BME280;16272;48.188;9.964;2023-11-21T01:37:20;95236.81;;;6.90;82.06
29247;BME280;16272;48.188;9.964;2023-11-21T01:39:47;95240.16;;;6.82;82.13
29247;BME280;16272;48.188;9.964;2023-11-21T01:42:12;95243.13;;;7.16;81.13
29247;BME280;16272;48.188;9.964;2023-11-21T01:44:38;95238.22;;;6.94;81.96
29247;BME280;16272;48.188;9.964;2023-11-21T01:47:05;95244.03;;;6.97;81.84
29247;BME280;16272;48.188;9.964;2023-11-21T01:49:32;95238.25;;;6.84;82.70
29247;BME280;16272;48.188;9.964;2023-11-21T01:51:59;95241.31;;;6.79;83.25
29247;BME280;16272;48.188;9.964;2023-11-21T01:54:25;95234.59;;;6.85;83.18
29247;BME280;16272;48.188;9.964;2023-11-21T01:56:50;95243.13;;;6.79;83.08
29247;BME280;16272;48.188;9.964;2023-11-21T01:59:18;95243.81;;;6.71;84.57
29247;BME280;16272;48.188;9.964;2023-11-21T02:01:45;95236.31;;;6.76;83.97
29247;BME280;16272;48.188;9.964;2023-11-21T02:04:12;95234.22;;;6.70;84.74
29247;BME280;16272;48.188;9.964;2023-11-21T02:06:37;95227.06;;;6.53;85.53
29247;BME280;16272;48.188;9.964;2023-11-21T02:09:04;95230.66;;;6.52;85.95
29247;BME280;16272;48.188;9.964;2023-11-21T02:11:30;95227.09;;;6.90;84.72
29247;BME280;16272;48.188;9.964;2023-11-21T02:13:55;95228.78;;;6.91;84.15
29247;BME280;16272;48.188;9.964;2023-11-21T02:16:20;95231.66;;;6.98;84.31
29247;BME280;16272;48.188;9.964;2023-11-21T02:18:49;95218.50;;;6.78;84.20
29247;BME280;16272;48.188;9.964;2023-11-21T02:21:15;95228.53;;;6.65;84.80
29247;BME280;16272;48.188;9.964;2023-11-21T02:23:40;95229.34;;;6.75;84.84
29247;BME280;16272;48.188;9.964;2023-11-21T02:26:10;95229.22;;;6.67;85.53
29247;BME280;16272;48.188;9.964;2023-11-21T02:28:36;95229.69;;;6.53;85.51
29247;BME280;16272;48.188;9.964;2023-11-21T02:31:01;95228.25;;;6.68;84.89
29247;BME280;16272;48.188;9.964;2023-11-21T02:33:28;95226.06;;;6.54;84.45
29247;BME280;16272;48.188;9.964;2023-11-21T02:35:53;95225.63;;;6.58;85.27
29247;BME280;16272;48.188;9.964;2023-11-21T02:38:20;95231.06;;;6.57;84.74
29247;BME280;16272;48.188;9.964;2023-11-21T02:40:46;95234.97;;;6.53;85.64
29247;BME280;16272;48.188;9.964;2023-11-21T02:43:11;95218.50;;;6.78;84.29
29247;BME280;16272;48.188;9.964;2023-11-21T02:45:36;95215.78;;;6.51;84.19
29247;BME280;16272;48.188;9.964;2023-11-21T02:48:02;95220.25;;;6.50;83.72
29247;BME280;16272;48.188;9.964;2023-11-21T02:50:27;95216.38;;;6.35;85.16
29247;BME280;16272;48.188;9.964;2023-11-21T02:52:53;95221.66;;;6.44;84.70
29247;BME280;16272;48.188;9.964;2023-11-21T02:55:18;95218.81;;;6.56;84.06
29247;BME280;16272;48.188;9.964;2023-11-21T02:57:44;95216.91;;;6.38;84.82
29247;BME280;16272;48.188;9.964;2023-11-21T03:00:09;95212.59;;;6.37;85.55
29247;BME280;16272;48.188;9.964;2023-11-21T03:02:35;95219.56;;;6.48;85.41
29247;BME280;16272;48.188;9.964;2023-11-21T03:05:04;95220.78;;;6.44;84.85
29247;BME280;16272;48.188;9.964;2023-11-21T03:07:30;95213.56;;;6.56;85.07
29247;BME280;16272;48.188;9.964;2023-11-21T03:09:55;95219.41;;;6.59;84.33
29247;BME280;16272;48.188;9.964;2023-11-21T03:12:20;95221.91;;;6.61;84.69
29247;BME280;16272;48.188;9.964;2023-11-21T03:14:46;95219.13;;;6.53;84.96
29247;BME280;16272;48.188;9.964;2023-11-21T03:17:11;95220.91;;;6.62;84.45
29247;BME280;16272;48.188;9.964;2023-11-21T03:19:36;95218.00;;;6.65;84.38
29247;BME280;16272;48.188;9.964;2023-11-21T03:22:02;95219.09;;;6.72;84.44
29247;BME280;16272;48.188;9.964;2023-11-21T03:24:29;95221.56;;;6.74;84.37
29247;BME280;16272;48.188;9.964;2023-11-21T03:26:54;95214.38;;;6.66;84.47
29247;BME280;16272;48.188;9.964;2023-11-21T03:29:19;95216.63;;;6.61;84.27
29247;BME280;16272;48.188;9.964;2023-11-21T03:31:45;95219.13;;;6.53;84.60
29247;BME280;16272;48.188;9.964;2023-11-21T03:34:15;95221.31;;;6.57;85.45
29247;BME280;16272;48.188;9.964;2023-11-21T03:36:41;95213.16;;;6.51;85.57
29247;BME280;16272;48.188;9.964;2023-11-21T03:39:06;95216.63;;;6.61;85.39
29247;BME280;16272;48.188;9.964;2023-11-21T03:41:32;95216.16;;;6.66;85.38
29247;BME280;16272;48.188;9.964;2023-11-21T03:43:57;95218.81;;;6.56;85.13
29247;BME280;16272;48.188;9.964;2023-11-21T03:46:22;95216.63;;;6.61;84.98
29247;BME280;16272;48.188;9.964;2023-11-21T03:48:47;95213.00;;;6.62;85.21
29247;BME280;16272;48.188;9.964;2023-11-21T03:51:13;95210.34;;;6.72;84.60
29247;BME280;16272;48.188;9.964;2023-11-21T03:53:38;95217.94;;;6.85;84.23
29247;BME280;16272;48.188;9.964;2023-11-21T03:56:06;95214.91;;;6.79;84.77
29247;BME280;16272;48.188;9.964;2023-11-21T03:58:32;95220.88;;;6.72;85.02
29247;BME280;16272;48.188;9.964;2023-11-21T04:00:57;95221.47;;;6.56;85.73
29247;BME280;16272;48.188;9.964;2023-11-21T04:03:22;95221.03;;;6.70;85.16
29247;BME280;16272;48.188;9.964;2023-11-21T04:05:47;95222.19;;;6.58;85.44
29247;BME280;16272;48.188;9.964;2023-11-21T04:08:13;95224.69;;;6.50;86.01
29247;BME280;16272;48.188;9.964;2023-11-21T04:10:38;95225.53;;;6.40;85.94
29247;BME280;16272;48.188;9.964;2023-11-21T04:13:05;95222.59;;;6.63;85.00
29247;BME280;16272;48.188;9.964;2023-11-21T04:15:30;95224.69;;;6.40;85.49
29247;BME280;16272;48.188;9.964;2023-11-21T04:17:55;95233.97;;;6.24;86.18
29247;BME280;16272;48.188;9.964;2023-11-21T04:20:21;95228.44;;;6.37;85.86
29247;BME280;16272;48.188;9.964;2023-11-21T04:22:48;95228.28;;;6.10;86.85
29247;BME280;16272;48.188;9.964;2023-11-21T04:25:14;95225.38;;;6.22;86.71
29247;BME280;16272;48.188;9.964;2023-11-21T04:27:40;95230.66;;;6.13;86.98
29247;BME280;16272;48.188;9.964;2023-11-21T04:30:09;95224.16;;;6.17;86.76
29247;BME280;16272;48.188;9.964;2023-11-21T04:32:35;95226.53;;;6.20;86.62
29247;BME280;16272;48.188;9.964;2023-11-21T04:35:00;95236.22;;;6.29;86.63
29247;BME280;16272;48.188;9.964;2023-11-21T04:37:25;95227.34;;;6.30;86.68
29247;BME280;16272;48.188;9.964;2023-11-21T04:39:50;95227.75;;;6.35;85.92
29247;BME280;16272;48.188;9.964;2023-11-21T04:42:16;95233.16;;;6.04;86.62
29247;BME280;16272;48.188;9.964;2023-11-21T04:44:42;95233.84;;;6.26;86.90
29247;BME280;16272;48.188;9.964;2023-11-21T04:47:09;95238.03;;;6.19;87.04
29247;BME280;16272;48.188;9.964;2023-11-21T04:49:34;95238.97;;;6.18;87.22
29247;BME280;16272;48.188;9.964;2023-11-21T04:51:59;95235.13;;;6.22;87.68
29247;BME280;16272;48.188;9.964;2023-11-21T04:54:26;95229.16;;;6.20;86.97
29247;BME280;16272;48.188;9.964;2023-11-21T04:56:51;95244.66;;;6.23;86.62
29247;BME280;16272;48.188;9.964;2023-11-21T04:59:17;95248.84;;;6.25;87.23
29247;BME280;16272;48.188;9.964;2023-11-21T05:01:42;95237.63;;;6.33;86.61
29247;BME280;16272;48.188;9.964;2023-11-21T05:04:07;95247.44;;;6.21;86.67
29247;BME280;16272;48.188;9.964;2023-11-21T05:06:34;95247.44;;;6.41;86.53
29247;BME280;16272;48.188;9.964;2023-11-21T05:08:59;95249.13;;;6.22;86.31
29247;BME280;16272;48.188;9.964;2023-11-21T05:11:28;95253.44;;;6.33;86.42
29247;BME280;16272;48.188;9.964;2023-11-21T05:13:54;95246.06;;;6.07;87.16
29247;BME280;16272;48.188;9.964;2023-11-21T05:16:21;95256.91;;;6.24;87.22
29247;BME280;16272;48.188;9.964;2023-11-21T05:18:47;95255.50;;;6.39;87.07
29247;BME280;16272;48.188;9.964;2023-11-21T05:21:12;95258.00;;;6.31;86.40
29247;BME280;16272;48.188;9.964;2023-11-21T05:23:38;95252.59;;;6.33;86.52
29247;BME280;16272;48.188;9.964;2023-11-21T05:26:03;95253.84;;;6.19;86.93
29247;BME280;16272;48.188;9.964;2023-11-21T05:28:28;95261.63;;;6.30;86.00
29247;BME280;16272;48.188;9.964;2023-11-21T05:30:54;95251.63;;;6.34;86.19
29247;BME280;16272;48.188;9.964;2023-11-21T05:33:20;95260.34;;;6.15;86.64
29247;BME280;16272;48.188;9.964;2023-11-21T05:35:45;95258.00;;;6.31;86.21
29247;BME280;16272;48.188;9.964;2023-11-21T05:38:10;95266.91;;;6.30;86.18
29247;BME280;16272;48.188;9.964;2023-11-21T05:40:36;95258.00;;;6.41;86.25
29247;BME280;16272;48.188;9.964;2023-11-21T05:43:02;95264.13;;;6.22;85.98
29247;BME280;16272;48.188;9.964;2023-11-21T05:45:27;95258.97;;;6.20;86.10
29247;BME280;16272;48.188;9.964;2023-11-21T05:47:54;95257.56;;;6.16;85.82
29247;BME280;16272;48.188;9.964;2023-11-21T05:50:19;95266.34;;;6.17;86.10
29247;BME280;16272;48.188;9.964;2023-11-21T05:52:46;95259.94;;;6.10;86.22
29247;BME280;16272;48.188;9.964;2023-11-21T05:55:12;95260.34;;;6.15;86.17
29247;BME280;16272;48.188;9.964;2023-11-21T05:57:39;95257.72;;;6.15;86.05
29247;BME280;16272;48.188;9.964;2023-11-21T06:00:06;95264.66;;;6.16;85.63
29247;BME280;16272;48.188;9.964;2023-11-21T06:02:48;95262.31;;;6.13;85.23
29247;BME280;16272;48.188;9.964;2023-11-21T06:05:16;95263.13;;;6.23;84.99
29247;BME280;16272;48.188;9.964;2023-11-21T06:07:43;95268.97;;;6.17;85.01
29247;BME280;16272;48.188;9.964;2023-11-21T06:10:08;95270.50;;;6.19;85.45
29247;BME280;16272;48.188;9.964;2023-11-21T06:12:36;95266.63;;;6.14;85.51
29247;BME280;16272;48.188;9.964;2023-11-21T06:15:05;95269.38;;;6.12;85.22
29247;BME280;16272;48.188;9.964;2023-11-21T06:17:34;95271.19;;;6.02;86.21
29247;BME280;16272;48.188;9.964;2023-11-21T06:20:02;95274.66;;;6.02;86.05
29247;BME280;16272;48.188;9.964;2023-11-21T06:22:34;95284.38;;;6.12;86.55
29247;BME280;16272;48.188;9.964;2023-11-21T06:24:59;95278.78;;;6.05;86.34
29247;BME280;16272;48.188;9.964;2023-11-21T06:27:25;95292.00;;;6.34;85.86
29247;BME280;16272;48.188;9.964;2023-11-21T06:29:50;95299.63;;;6.18;85.25
29247;BME280;16272;48.188;9.964;2023-11-21T06:32:16;95300.50;;;6.28;84.86
29247;BME280;16272;48.188;9.964;2023-11-21T06:34:41;95291.59;;;6.29;85.13
29247;BME280;16272;48.188;9.964;2023-11-21T06:37:06;95296.88;;;6.29;85.45
29247;BME280;16272;48.188;9.964;2023-11-21T06:39:32;95290.22;;;6.25;85.39
29247;BME280;16272;48.188;9.964;2023-11-21T06:41:57;95291.06;;;6.35;85.04
29247;BME280;16272;48.188;9.964;2023-11-21T06:44:24;95299.22;;;6.22;85.73
29247;BME280;16272;48.188;9.964;2023-11-21T06:46:50;95309.09;;;6.30;85.59
29247;BME280;16272;48.188;9.964;2023-11-21T06:49:15;95300.47;;;6.18;86.15
29247;BME280;16272;48.188;9.964;2023-11-21T06:51:41;95311.00;;;6.09;86.52
29247;BME280;16272;48.188;9.964;2023-11-21T06:54:07;95308.38;;;6.09;86.48
29247;BME280;16272;48.188;9.964;2023-11-21T06:56:32;95304.88;;;6.08;87.10
29247;BME280;16272;48.188;9.964;2023-11-21T06:58:57;95311.28;;;6.05;86.67
29247;BME280;16272;48.188;9.964;2023-11-21T07:01:23;95308.25;;;6.20;86.47
29247;BME280;16272;48.188;9.964;2023-11-21T07:03:49;95311.03;;;6.18;86.22
29247;BME280;16272;48.188;9.964;2023-11-21T07:06:15;95316.03;;;6.31;85.57
29247;BME280;16272;48.188;9.964;2023-11-21T07:08:40;95313.13;;;6.44;85.05
29247;BME280;16272;48.188;9.964;2023-11-21T07:11:05;95319.38;;;6.33;84.58
29247;BME280;16272;48.188;9.964;2023-11-21T07:13:31;95324.66;;;6.53;84.41
29247;BME280;16272;48.188;9.964;2023-11-21T07:15:59;95327.72;;;6.38;85.23
29247;BME280;16272;48.188;9.964;2023-11-21T07:18:24;95324.63;;;6.14;85.54
29247;BME280;16272;48.188;9.964;2023-11-21T07:20:49;95325.47;;;6.43;85.08
29247;BME280;16272;48.188;9.964;2023-11-21T07:23:15;95330.22;;;6.40;84.80
29247;BME280;16272;48.188;9.964;2023-11-21T07:25:41;95324.78;;;6.41;84.80
29247;BME280;16272;48.188;9.964;2023-11-21T07:28:08;95331.72;;;6.42;84.39
29247;BME280;16272;48.188;9.964;2023-11-21T07:30:33;95331.31;;;6.37;84.34
29247;BME280;16272;48.188;9.964;2023-11-21T07:32:58;95335.75;;;6.27;84.39
29247;BME280;16272;48.188;9.964;2023-11-21T07:35:24;95337.56;;;6.36;84.17
29247;BME280;16272;48.188;9.964;2023-11-21T07:37:49;95333.78;;;6.29;84.17
29247;BME280;16272;48.188;9.964;2023-11-21T07:40:15;95348.41;;;6.43;83.68
29247;BME280;16272;48.188;9.964;2023-11-21T07:42:41;95342.69;;;6.48;83.98
29247;BME280;16272;48.188;9.964;2023-11-21T07:45:08;95336.56;;;6.37;84.72
29247;BME280;16272;48.188;9.964;2023-11-21T07:47:33;95344.91;;;6.52;84.20
29247;BME280;16272;48.188;9.964;2023-11-21T07:50:00;95354.25;;;6.66;84.36
29247;BME280;16272;48.188;9.964;2023-11-21T07:52:25;95352.03;;;6.71;84.11
29247;BME280;16272;48.188;9.964;2023-11-21T07:54:50;95350.31;;;6.41;84.71
29247;BME280;16272;48.188;9.964;2023-11-21T07:57:16;95352.44;;;6.57;84.91
29247;BME280;16272;48.188;9.964;2023-11-21T07:59:41;95362.31;;;6.74;85.01
29247;BME280;16272;48.188;9.964;2023-11-21T08:02:07;95352.97;;;7.09;83.26
29247;BME280;16272;48.188;9.964;2023-11-21T08:04:32;95351.00;;;7.11;84.08
29247;BME280;16272;48.188;9.964;2023-11-21T08:06:59;95356.28;;;7.11;82.45
29247;BME280;16272;48.188;9.964;2023-11-21T08:09:24;95358.78;;;7.23;82.58
29247;BME280;16272;48.188;9.964;2023-11-21T08:11:50;95360.84;;;7.29;83.32
29247;BME280;16272;48.188;9.964;2023-11-21T08:14:17;95360.72;;;7.21;82.99
29247;BME280;16272;48.188;9.964;2023-11-21T08:16:42;95360.19;;;7.07;84.28
29247;BME280;16272;48.188;9.964;2023-11-21T08:19:07;95362.66;;;7.28;82.59
29247;BME280;16272;48.188;9.964;2023-11-21T08:21:34;95360.97;;;7.37;82.67
29247;BME280;16272;48.188;9.964;2023-11-21T08:23:59;95365.41;;;7.46;82.98
29247;BME280;16272;48.188;9.964;2023-11-21T08:26:25;95363.13;;;7.71;81.93
29247;BME280;16272;48.188;9.964;2023-11-21T08:28:50;95369.31;;;7.42;83.29
29247;BME280;16272;48.188;9.964;2023-11-21T08:31:23;95370.97;;;7.53;83.54
29247;BME280;16272;48.188;9.964;2023-11-21T08:33:49;95370.75;;;7.27;83.55
29247;BME280;16272;48.188;9.964;2023-11-21T08:36:14;95371.81;;;7.34;83.72
29247;BME280;16272;48.188;9.964;2023-11-21T08:38:40;95371.22;;;7.60;82.37
29247;BME280;16272;48.188;9.964;2023-11-21T08:41:07;95372.63;;;7.44;82.32
29247;BME280;16272;48.188;9.964;2023-11-21T08:43:34;95380.66;;;7.62;82.40
29247;BME280;16272;48.188;9.964;2023-11-21T08:46:00;95377.31;;;7.60;83.23
29247;BME280;16272;48.188;9.964;2023-11-21T08:48:25;95367.53;;;7.70;82.76
29247;BME280;16272;48.188;9.964;2023-11-21T08:50:50;95370.56;;;7.48;82.50
29247;BME280;16272;48.188;9.964;2023-11-21T08:53:16;95372.44;;;7.65;82.80
29247;BME280;16272;48.188;9.964;2023-11-21T08:55:41;95373.31;;;7.56;83.14
29247;BME280;16272;48.188;9.964;2023-11-21T08:58:07;95379.78;;;7.71;81.41
29247;BME280;16272;48.188;9.964;2023-11-21T09:00:33;95380.38;;;7.55;82.69
29247;BME280;16272;48.188;9.964;2023-11-21T09:02:58;95386.25;;;7.59;82.89
29247;BME280;16272;48.188;9.964;2023-11-21T09:05:23;95379.16;;;7.50;82.26
29247;BME280;16272;48.188;9.964;2023-11-21T09:07:49;95384.16;;;7.63;82.36
29247;BME280;16272;48.188;9.964;2023-11-21T09:10:14;95386.94;;;7.61;81.76
29247;BME280;16272;48.188;9.964;2023-11-21T09:12:39;95395.56;;;7.53;82.94
29247;BME280;16272;48.188;9.964;2023-11-21T09:15:06;95395.16;;;7.48;82.57
29247;BME280;16272;48.188;9.964;2023-11-21T09:17:32;95397.72;;;8.15;80.81
29247;BME280;16272;48.188;9.964;2023-11-21T09:19:59;95393.66;;;7.83;80.97
29247;BME280;16272;48.188;9.964;2023-11-21T09:22:24;95393.91;;;7.90;82.04
29247;BME280;16272;48.188;9.964;2023-11-21T09:24:50;95406.16;;;8.28;79.22
29247;BME280;16272;48.188;9.964;2023-11-21T09:27:16;95408.13;;;8.26;80.33
29247;BME280;16272;48.188;9.964;2023-11-21T09:29:42;95398.59;;;8.34;81.27
29247;BME280;16272;48.188;9.964;2023-11-21T09:32:07;95407.81;;;8.02;79.96
29247;BME280;16272;48.188;9.964;2023-11-21T09:34:34;95399.31;;;8.26;79.64
29247;BME280;16272;48.188;9.964;2023-11-21T09:37:03;95404.09;;;8.22;80.32
29247;BME280;16272;48.188;9.964;2023-11-21T09:39:30;95410.66;;;8.46;80.05
29247;BME280;16272;48.188;9.964;2023-11-21T09:42:11;95406.41;;;9.17;78.10
29247;BME280;16272;48.188;9.964;2023-11-21T09:44:58;95404.28;;;9.20;77.21
29247;BME280;16272;48.188;9.964;2023-11-21T09:47:29;95408.38;;;9.15;79.00
29247;BME280;16272;48.188;9.964;2023-11-21T09:49:56;95402.84;;;9.26;78.00
29247;BME280;16272;48.188;9.964;2023-11-21T09:52:26;95404.59;;;8.99;78.26
29247;BME280;16272;48.188;9.964;2023-11-21T09:54:53;95400.94;;;8.46;79.07
29247;BME280;16272;48.188;9.964;2023-11-21T09:57:20;95403.31;;;8.68;79.87
29247;BME280;16272;48.188;9.964;2023-11-21T09:59:50;95404.44;;;9.19;79.74
29247;BME280;16272;48.188;9.964;2023-11-21T10:02:17;95407.75;;;9.21;77.94
29247;BME280;16272;48.188;9.964;2023-11-21T10:04:44;95403.25;;;8.95;79.38
29247;BME280;16272;48.188;9.964;2023-11-21T10:07:10;95404.38;;;9.11;78.09
29247;BME280;16272;48.188;9.964;2023-11-21T10:09:37;95392.09;;;8.92;78.97
29247;BME280;16272;48.188;9.964;2023-11-21T10:12:05;95389.66;;;9.61;78.89
29247;BME280;16272;48.188;9.964;2023-11-21T10:14:34;95393.22;;;9.69;77.98
29247;BME280;16272;48.188;9.964;2023-11-21T10:17:00;95388.38;;;9.38;76.20
29247;BME280;16272;48.188;9.964;2023-11-21T10:19:25;95386.25;;;9.68;75.55
29247;BME280;16272;48.188;9.964;2023-11-21T10:21:52;95382.50;;;9.53;76.12
29247;BME280;16272;48.188;9.964;2023-11-21T10:24:19;95394.06;;;9.08;77.33
29247;BME280;16272;48.188;9.964;2023-11-21T10:26:44;95396.94;;;8.96;76.60
29247;BME280;16272;48.188;9.964;2023-11-21T10:29:14;95397.41;;;9.10;76.58
29247;BME280;16272;48.188;9.964;2023-11-21T10:31:41;95400.03;;;9.10;76.48
29247;BME280;16272;48.188;9.964;2023-11-21T10:34:18;95393.94;;;9.09;77.96
29247;BME280;16272;48.188;9.964;2023-11-21T10:36:45;95381.03;;;9.59;77.90
29247;BME280;16272;48.188;9.964;2023-11-21T10:39:17;95376.34;;;9.52;78.41
29247;BME280;16272;48.188;9.964;2023-11-21T10:41:47;95379.50;;;9.48;76.63
29247;BME280;16272;48.188;9.964;2023-11-21T10:44:17;95380.13;;;9.68;77.58
29247;BME280;16272;48.188;9.964;2023-11-21T10:46:50;95383.50;;;10.12;76.74
29247;BME280;16272;48.188;9.964;2023-11-21T10:49:19;95379.22;;;10.20;75.94
29247;BME280;16272;48.188;9.964;2023-11-21T10:51:45;95380.03;;;10.55;74.28
29247;BME280;16272;48.188;9.964;2023-11-21T10:54:11;95379.22;;;10.20;74.08
29247;BME280;16272;48.188;9.964;2023-11-21T10:56:38;95375.97;;;10.34;74.84
29247;BME280;16272;48.188;9.964;2023-11-21T10:59:08;95377.94;;;10.91;74.82
29247;BME280;16272;48.188;9.964;2023-11-21T11:01:35;95368.84;;;11.02;72.88
29247;BME280;16272;48.188;9.964;2023-11-21T11:04:03;95389.16;;;10.60;74.07
29247;BME280;16272;48.188;9.964;2023-11-21T11:06:31;95387.53;;;10.25;72.74
29247;BME280;16272;48.188;9.964;2023-11-21T11:08:58;95389.00;;;10.19;70.82
29247;BME280;16272;48.188;9.964;2023-11-21T11:11:25;95387.97;;;9.78;71.12
29247;BME280;16272;48.188;9.964;2023-11-21T11:13:51;95390.63;;;9.78;70.64
29247;BME280;16272;48.188;9.964;2023-11-21T11:16:18;95383.53;;;9.60;72.33
29247;BME280;16272;48.188;9.964;2023-11-21T11:18:43;95387.41;;;9.40;72.20
29247;BME280;16272;48.188;9.964;2023-11-21T11:21:46;95389.56;;;9.44;72.36
29247;BME280;16272;48.188;9.964;2023-11-21T11:32:40;95383.41;;;9.17;73.44
29247;BME280;16272;48.188;9.964;2023-11-21T11:35:18;95378.31;;;9.24;74.13
29247;BME280;16272;48.188;9.964;2023-11-21T11:37:46;95377.34;;;9.25;73.47
29247;BME280;16272;48.188;9.964;2023-11-21T11:40:12;95378.00;;;9.27;72.94
29247;BME280;16272;48.188;9.964;2023-11-21T11:42:37;95375.06;;;9.30;72.35
29247;BME280;16272;48.188;9.964;2023-11-21T11:45:17;95374.00;;;9.75;71.67
29247;BME280;16272;48.188;9.964;2023-11-21T11:47:43;95371.69;;;9.72;74.51
29247;BME280;16272;48.188;9.964;2023-11-21T11:50:11;95371.34;;;9.75;73.96
29247;BME280;16272;48.188;9.964;2023-11-21T11:52:54;95371.47;;;9.92;71.44
29247;BME280;16272;48.188;9.964;2023-11-21T11:55:23;95374.59;;;10.22;71.06
29247;BME280;16272;48.188;9.964;2023-11-21T11:57:53;95373.16;;;10.36;70.62
29247;BME280;16272;48.188;9.964;2023-11-21T12:00:34;95365.72;;;10.05;72.15
29247;BME280;16272;48.188;9.964;2023-11-21T12:03:03;95362.03;;;10.32;68.99
29247;BME280;16272;48.188;9.964;2023-11-21T12:05:30;95362.31;;;10.21;68.65
29247;BME280;16272;48.188;9.964;2023-11-21T12:08:05;95366.84;;;9.94;70.90
29247;BME280;16272;48.188;9.964;2023-11-21T12:10:32;95361.66;;;9.58;70.29
29247;BME280;16272;48.188;9.964;2023-11-21T12:13:01;95367.06;;;9.74;70.66
29247;BME280;16272;48.188;9.964;2023-11-21T12:15:27;95373.25;;;9.57;73.06
29247;BME280;16272;48.188;9.964;2023-11-21T12:17:55;95375.13;;;9.65;71.98
29247;BME280;16272;48.188;9.964;2023-11-21T12:20:23;95377.41;;;9.60;75.27
29247;BME280;16272;48.188;9.964;2023-11-21T12:22:50;95372.00;;;9.69;72.82
29247;BME280;16272;48.188;9.964;2023-11-21T12:25:21;95365.59;;;9.80;71.55
29247;BME280;16272;48.188;9.964;2023-11-21T12:27:49;95372.94;;;9.60;71.20
29247;BME280;16272;48.188;9.964;2023-11-21T12:30:15;95367.47;;;9.35;72.58
29247;BME280;16272;48.188;9.964;2023-11-21T12:32:48;95373.44;;;9.37;73.50
29247;BME280;16272;48.188;9.964;2023-11-21T12:35:14;95372.03;;;9.25;76.26
29247;BME280;16272;48.188;9.964;2023-11-21T12:37:40;95366.47;;;9.10;74.17
29247;BME280;16272;48.188;9.964;2023-11-21T12:40:08;95368.91;;;9.48;73.78
29247;BME280;16272;48.188;9.964;2023-11-21T12:42:36;95376.09;;;9.37;74.11
29247;BME280;16272;48.188;9.964;2023-11-21T12:45:22;95374.59;;;9.35;74.35
29247;BME280;16272;48.188;9.964;2023-11-21T12:47:49;95377.41;;;9.86;73.55
29247;BME280;16272;48.188;9.964;2023-11-21T12:50:22;95375.63;;;9.68;74.85
29247;BME280;16272;48.188;9.964;2023-11-21T12:52:55;95387.56;;;9.64;74.75
29247;BME280;16272;48.188;9.964;2023-11-21T12:55:23;95390.16;;;9.56;72.21
29247;BME280;16272;48.188;9.964;2023-11-21T12:57:50;95387.44;;;9.48;73.89
29247;BME280;16272;48.188;9.964;2023-11-21T13:00:17;95396.03;;;9.68;71.69
29247;BME280;16272;48.188;9.964;2023-11-21T13:02:54;95397.25;;;9.82;70.52
29247;BME280;16272;48.188;9.964;2023-11-21T13:05:29;95395.50;;;9.90;71.27
29247;BME280;16272;48.188;9.964;2023-11-21T13:07:59;95395.63;;;9.81;71.94
29247;BME280;16272;48.188;9.964;2023-11-21T13:10:28;95396.25;;;9.74;72.30
29247;BME280;16272;48.188;9.964;2023-11-21T13:12:57;95397.47;;;9.62;72.36
29247;BME280;16272;48.188;9.964;2023-11-21T13:15:24;95402.88;;;9.52;70.95
29247;BME280;16272;48.188;9.964;2023-11-21T13:17:50;95406.66;;;9.06;69.92